createdAt,value
2023-03-15T00:00:19.779Z,1002.1
2023-03-15T00:15:19.597Z,1002.3
2023-03-15T00:30:20.048Z,1002.6
2023-03-15T00:45:18.777Z,1002.8
2023-03-15T01:00:20.014Z,1002.9
2023-03-15T01:15:20.032Z,1003
2023-03-15T01:30:19.978Z,1003.1
2023-03-15T01:45:19.091Z,1003.1
2023-03-15T02:00:19.243Z,1003.5
2023-03-15T02:15:19.106Z,1003.6
2023-03-15T02:30:20.149Z,1003.8
2023-03-15T02:45:19.028Z,1004
2023-03-15T03:00:19.499Z,1004.3
2023-03-15T03:15:19.102Z,1004.6
2023-03-15T03:30:19.773Z,1004.9
2023-03-15T03:45:19.660Z,1005.1
2023-03-15T04:00:20.688Z,1005.2
2023-03-15T04:15:18.949Z,1005.4
2023-03-15T04:30:19.297Z,1005.5
2023-03-15T04:45:19.738Z,1005.7
2023-03-15T05:02:39.542Z,1005.8
2023-03-15T05:15:18.933Z,1006.1
2023-03-15T05:30:19.318Z,1006.4
2023-03-15T05:45:19.328Z,1006.6
2023-03-15T06:00:22.411Z,1006.8
2023-03-15T06:15:24.473Z,1007.1
2023-03-15T06:30:19.956Z,1007.2
2023-03-15T06:45:19.113Z,1007.4
2023-03-15T07:00:19.881Z,1007.9
2023-03-15T07:15:19.326Z,1008.6
2023-03-15T07:30:19.507Z,1008.5
2023-03-15T07:45:19.213Z,1008.5
2023-03-15T08:00:19.147Z,1008.6
2023-03-15T08:15:19.859Z,1008.6
2023-03-15T08:30:19.348Z,1008.8
2023-03-15T08:45:19.567Z,1009.1
2023-03-15T09:00:19.381Z,1009.6
2023-03-15T09:15:19.257Z,1009.6
2023-03-15T09:30:19.128Z,1009.8
2023-03-15T09:45:19.619Z,1009.8
2023-03-15T10:00:19.142Z,1010
2023-03-15T10:15:19.927Z,1009.9
2023-03-15T10:30:19.735Z,1010
2023-03-15T10:45:19.610Z,1010
2023-03-15T11:00:19.325Z,1010
2023-03-15T11:15:19.428Z,1010.2
2023-03-15T11:30:18.863Z,1010.3
2023-03-15T11:45:19.333Z,1010.7
2023-03-15T12:00:19.906Z,1010.7
2023-03-15T12:15:19.304Z,1010.8
2023-03-15T12:30:19.607Z,1010.8
2023-03-15T12:45:19.256Z,1010.8
2023-03-15T13:00:19.311Z,1010.9
2023-03-15T13:15:19.502Z,1010.9
2023-03-15T13:30:19.012Z,1011
2023-03-15T13:45:19.017Z,1011
2023-03-15T14:00:19.466Z,1011.1
2023-03-15T14:15:18.896Z,1011.2
2023-03-15T14:30:20.628Z,1011.5
2023-03-15T14:45:19.368Z,1011.6
2023-03-15T15:00:19.791Z,1011.6
2023-03-15T15:15:18.968Z,1011.7
2023-03-15T15:30:19.688Z,1011.9
2023-03-15T15:45:19.585Z,1012
2023-03-15T16:00:19.851Z,1012.1
2023-03-15T16:15:18.927Z,1012.4
2023-03-15T16:30:19.757Z,1012.5
2023-03-15T16:45:19.037Z,1012.7
2023-03-15T17:00:19.220Z,1012.9
2023-03-15T17:15:19.555Z,1013.2
2023-03-15T17:30:19.523Z,1013.4
2023-03-15T17:45:20.183Z,1013.5
2023-03-15T18:00:19.068Z,1013.6
2023-03-15T18:15:19.261Z,1013.7
2023-03-15T18:30:20.281Z,1013.9
2023-03-15T18:45:19.465Z,1013.9
2023-03-15T19:00:19.128Z,1014
2023-03-15T19:15:19.026Z,1014.1
2023-03-15T19:30:19.681Z,1014.2
2023-03-15T19:45:20.246Z,1014.2
2023-03-15T20:00:20.768Z,1014.3
2023-03-15T20:15:19.780Z,1014.4
2023-03-15T20:30:20.516Z,1014.6
2023-03-15T20:45:19.664Z,1014.8
2023-03-15T21:00:19.501Z,1014.8
2023-03-15T21:15:19.070Z,1014.9
2023-03-15T21:30:19.582Z,1014.9
2023-03-15T21:45:18.901Z,1014.9
2023-03-15T22:00:22.813Z,1015
2023-03-15T22:15:19.379Z,1015.2
2023-03-15T22:30:19.421Z,1015.2
2023-03-15T22:45:19.494Z,1015.2
2023-03-15T23:00:19.181Z,1015.2
2023-03-15T23:15:19.055Z,1015.3
2023-03-15T23:30:25.938Z,1015.5
2023-03-15T23:45:19.781Z,1015.6
